Time;durP1;ratioP1;P1;durP2;ratioP2;P2;SDS_P1;SDS_P2;PMS_P1;PMS_P2;Temp;Humidity;BMP_temperature;BMP_pressure;BME280_temperature;BME280_humidity;BME280_pressure;Samples;Min_cycle;Max_cycle;Signal;HPM_P1;HPM_P2
2023/03/18 00:01:36;;;;;;;12.45;7.63;;;;;;;;;;6243657;22;20028;-84
2023/03/18 00:04:03;;;;;;;13.63;7.43;;;;;;;;;;6241423;22;20040;-84
2023/03/18 00:06:29;;;;;;;13.82;8.25;;;;;;;;;;6269506;22;20760;-84
2023/03/18 00:08:57;;;;;;;15.10;8.18;;;;;;;;;;6242434;22;20103;-84
2023/03/18 00:11:23;;;;;;;17.17;8.25;;;;;;;;;;6269202;22;20654;-84
2023/03/18 00:13:50;;;;;;;14.75;8.65;;;;;;;;;;6269030;22;20039;-84
2023/03/18 00:16:16;;;;;;;16.45;9.10;;;;;;;;;;6266995;22;20471;-84
2023/03/18 00:18:43;;;;;;;18.63;9.20;;;;;;;;;;6241195;22;20048;-84
2023/03/18 00:21:09;;;;;;;17.27;9.50;;;;;;;;;;6269811;22;20107;-84
2023/03/18 00:23:37;;;;;;;13.05;8.45;;;;;;;;;;6269169;22;20022;-83
2023/03/18 00:26:04;;;;;;;22.13;8.60;;;;;;;;;;6269865;22;20340;-84
2023/03/18 00:28:31;;;;;;;15.05;8.80;;;;;;;;;;6269819;22;20102;-83
2023/03/18 00:31:07;;;;;;;18.80;9.60;;;;;;;;;;6243743;22;20050;-83
2023/03/18 00:33:35;;;;;;;16.80;9.95;;;;;;;;;;6243396;22;20028;-83
2023/03/18 00:36:01;;;;;;;16.63;9.63;;;;;;;;;;6270261;22;20020;-84
2023/03/18 00:38:28;;;;;;;16.88;9.35;;;;;;;;;;6269781;22;20102;-84
2023/03/18 00:41:10;;;;;;;15.80;9.27;;;;;;;;;;6270346;22;20063;-84
2023/03/18 00:43:53;;;;;;;17.05;9.63;;;;;;;;;;6270494;22;20032;-84
2023/03/18 00:46:24;;;;;;;16.52;9.25;;;;;;;;;;6242781;22;20468;-84
2023/03/18 00:48:50;;;;;;;;;;;;;;;;;;6272131;22;20103;-84
2023/03/18 00:51:17;;;;;;;18.23;9.27;;;;;;;;;;6242994;22;47938;-84
2023/03/18 00:53:45;;;;;;;17.85;9.95;;;;;;;;;;6270107;22;20136;-83
2023/03/18 00:56:12;;;;;;;19.90;10.02;;;;;;;;;;6244219;22;20103;-84
2023/03/18 00:58:39;;;;;;;18.70;10.18;;;;;;;;;;6242392;22;20024;-84
2023/03/18 01:01:07;;;;;;;18.60;10.02;;;;;;;;;;6270056;22;20035;-84
2023/03/18 01:03:34;;;;;;;15.82;9.55;;;;;;;;;;6269486;22;20401;-84
2023/03/18 01:06:01;;;;;;;18.73;10.25;;;;;;;;;;6242574;22;20030;-84
2023/03/18 01:08:29;;;;;;;20.02;10.20;;;;;;;;;;6269432;22;20026;-84
2023/03/18 01:10:55;;;;;;;20.17;10.10;;;;;;;;;;6240516;22;20036;-84
2023/03/18 01:13:25;;;;;;;18.95;10.15;;;;;;;;;;6268351;22;20069;-84
2023/03/18 01:15:51;;;;;;;18.70;9.80;;;;;;;;;;6269319;22;20020;-84
2023/03/18 01:18:18;;;;;;;15.27;9.52;;;;;;;;;;6269191;22;20028;-84
2023/03/18 01:20:44;;;;;;;19.38;9.98;;;;;;;;;;6268650;22;20036;-84
2023/03/18 01:23:12;;;;;;;17.15;9.70;;;;;;;;;;6267635;22;20120;-84
2023/03/18 01:25:38;;;;;;;19.98;9.60;;;;;;;;;;6243042;22;20032;-84
2023/03/18 01:28:05;;;;;;;19.48;10.52;;;;;;;;;;6242404;22;20024;-83
2023/03/18 01:30:34;;;;;;;22.08;11.23;;;;;;;;;;6270616;22;20103;-83
2023/03/18 01:33:03;;;;;;;22.95;11.35;;;;;;;;;;6243573;22;20012;-83
2023/03/18 01:35:31;;;;;;;20.38;10.85;;;;;;;;;;6270028;22;20047;-84
2023/03/18 01:37:58;;;;;;;19.35;10.50;;;;;;;;;;6243320;22;20528;-84
2023/03/18 01:40:24;;;;;;;18.27;11.13;;;;;;;;;;6270619;22;20103;-84
2023/03/18 01:42:53;;;;;;;22.60;11.88;;;;;;;;;;6268842;22;20017;-84
2023/03/18 01:45:22;;;;;;;21.13;11.10;;;;;;;;;;6270191;22;20028;-84
2023/03/18 01:47:50;;;;;;;20.13;11.52;;;;;;;;;;6270526;22;20095;-84
2023/03/18 01:50:21;;;;;;;18.98;11.50;;;;;;;;;;6246760;22;20020;-84
2023/03/18 01:52:51;;;;;;;20.23;11.40;;;;;;;;;;6272585;22;20028;-84
2023/03/18 01:55:19;;;;;;;20.73;11.48;;;;;;;;;;6246714;22;20099;-84
2023/03/18 01:57:47;;;;;;;22.35;12.13;;;;;;;;;;6243893;22;20055;-83
2023/03/18 02:00:15;;;;;;;20.25;11.48;;;;;;;;;;6245291;22;20060;-84
2023/03/18 02:02:42;;;;;;;17.52;11.50;;;;;;;;;;6274834;22;20035;-84
2023/03/18 02:05:10;;;;;;;26.05;12.45;;;;;;;;;;6245286;22;20058;-84
2023/03/18 02:07:39;;;;;;;19.85;12.32;;;;;;;;;;6271871;22;20079;-84
2023/03/18 02:10:10;;;;;;;24.98;12.05;;;;;;;;;;6272330;22;20028;-84
2023/03/18 02:12:38;;;;;;;22.85;12.40;;;;;;;;;;6273587;22;20460;-84
2023/03/18 02:15:06;;;;;;;23.90;12.95;;;;;;;;;;6271640;22;20024;-84
2023/03/18 02:17:34;;;;;;;20.60;12.73;;;;;;;;;;6271594;22;20064;-84
2023/03/18 02:20:17;;;;;;;20.95;12.45;;;;;;;;;;6271302;22;20052;-84
2023/03/18 02:22:56;;;;;;;21.52;12.25;;;;;;;;;;6259241;22;20013;-84
2023/03/18 02:25:46;;;;;;;21.35;12.20;;;;;;;;;;6257832;22;20075;-84
2023/03/18 02:28:17;;;;;;;20.27;11.85;;;;;;;;;;6245298;22;20038;-84
2023/03/18 02:30:46;;;;;;;21.60;11.88;;;;;;;;;;6286182;22;20043;-83
2023/03/18 02:33:13;;;;;;;22.98;12.00;;;;;;;;;;6258929;22;20071;-84
2023/03/18 02:35:41;;;;;;;25.17;13.40;;;;;;;;;;6288061;22;20027;-84
2023/03/18 02:38:08;;;;;;;21.75;13.02;;;;;;;;;;6293440;22;20026;-85
2023/03/18 02:40:36;;;;;;;22.58;13.07;;;;;;;;;;6290685;22;20110;-84
2023/03/18 02:43:23;;;;;;;21.92;13.20;;;;;;;;;;6288066;22;20020;-84
2023/03/18 02:46:05;;;;;;;22.10;13.27;;;;;;;;;;6288410;22;20023;-85
2023/03/18 02:48:35;;;;;;;20.02;13.35;;;;;;;;;;6261919;22;20004;-84
2023/03/18 02:51:02;;;;;;;26.67;13.02;;;;;;;;;;6262217;22;20350;-85
2023/03/18 02:53:28;;;;;;;22.23;13.93;;;;;;;;;;6288501;22;20024;-84
2023/03/18 02:55:55;;;;;;;28.55;14.60;;;;;;;;;;6282857;22;20023;-84
2023/03/18 02:58:21;;;;;;;24.38;14.07;;;;;;;;;;6282384;22;20024;-84
2023/03/18 03:00:48;;;;;;;27.48;13.95;;;;;;;;;;6255675;22;20012;-84
2023/03/18 03:03:15;;;;;;;22.45;13.48;;;;;;;;;;6282151;22;20016;-84
2023/03/18 03:05:41;;;;;;;23.20;13.93;;;;;;;;;;6280462;22;20115;-84
2023/03/18 03:08:08;;;;;;;25.08;13.68;;;;;;;;;;6254881;22;20030;-84
2023/03/18 03:10:35;;;;;;;24.52;13.70;;;;;;;;;;6280751;22;20127;-84
2023/03/18 03:13:02;;;;;;;25.63;14.32;;;;;;;;;;6279880;22;20017;-85
2023/03/18 03:15:29;;;;;;;33.00;14.63;;;;;;;;;;6283160;22;20819;-84
2023/03/18 03:17:55;;;;;;;25.27;13.43;;;;;;;;;;6279270;22;20064;-84
2023/03/18 03:20:22;;;;;;;22.63;13.60;;;;;;;;;;6277868;22;20013;-84
2023/03/18 03:22:49;;;;;;;25.77;13.95;;;;;;;;;;6278323;22;20055;-84
2023/03/18 03:25:15;;;;;;;24.23;14.27;;;;;;;;;;6280046;22;20024;-84
2023/03/18 03:27:42;;;;;;;22.10;12.55;;;;;;;;;;6278320;22;20095;-84
2023/03/18 03:30:09;;;;;;;26.00;14.13;;;;;;;;;;6280439;22;20558;-85
2023/03/18 03:32:36;;;;;;;25.55;13.50;;;;;;;;;;6280819;22;20078;-83
2023/03/18 03:35:04;;;;;;;25.92;12.93;;;;;;;;;;6280585;22;20031;-84
2023/03/18 03:37:30;;;;;;;20.98;13.05;;;;;;;;;;6281752;22;20067;-84
2023/03/18 03:39:57;;;;;;;24.02;14.13;;;;;;;;;;6280475;22;20110;-84
2023/03/18 03:42:23;;;;;;;25.52;13.52;;;;;;;;;;6279747;22;20024;-84
2023/03/18 03:44:50;;;;;;;25.65;13.98;;;;;;;;;;6275970;22;20537;-84
2023/03/18 03:47:16;;;;;;;24.92;13.10;;;;;;;;;;6278707;22;20028;-84
2023/03/18 03:49:42;;;;;;;23.65;13.07;;;;;;;;;;6277885;22;20464;-84
2023/03/18 03:52:09;;;;;;;25.17;13.88;;;;;;;;;;6248816;22;20540;-84
2023/03/18 03:54:35;;;;;;;25.13;13.43;;;;;;;;;;6247606;22;20028;-84
2023/03/18 03:57:01;;;;;;;21.98;12.60;;;;;;;;;;6243583;22;20028;-84
2023/03/18 03:59:28;;;;;;;27.02;13.77;;;;;;;;;;6244167;22;20032;-84
2023/03/18 04:01:54;;;;;;;26.55;14.10;;;;;;;;;;6272460;22;20028;-84
2023/03/18 04:04:21;;;;;;;31.25;14.02;;;;;;;;;;6241942;22;20028;-83
2023/03/18 04:06:47;;;;;;;25.98;14.90;;;;;;;;;;6241866;22;20079;-83
2023/03/18 04:09:14;;;;;;;28.42;14.90;;;;;;;;;;6270250;22;20585;-83
2023/03/18 04:11:41;;;;;;;28.90;14.98;;;;;;;;;;6270855;22;20480;-82
2023/03/18 04:14:08;;;;;;;29.73;16.00;;;;;;;;;;6241776;22;20612;-84
2023/03/18 04:16:34;;;;;;;30.00;16.27;;;;;;;;;;6270611;22;20024;-85
2023/03/18 04:19:00;;;;;;;29.33;15.32;;;;;;;;;;6270370;22;20024;-83
2023/03/18 04:21:27;;;;;;;26.02;14.65;;;;;;;;;;6269406;22;20031;-82
2023/03/18 04:23:53;;;;;;;29.45;15.18;;;;;;;;;;6269788;22;20056;-82
2023/03/18 04:26:19;;;;;;;33.15;15.98;;;;;;;;;;6269746;22;20462;-82
2023/03/18 04:28:46;;;;;;;30.13;16.60;;;;;;;;;;6270728;22;20020;-82
2023/03/18 04:31:13;;;;;;;27.73;15.90;;;;;;;;;;6243273;22;20639;-83
2023/03/18 04:33:39;;;;;;;31.48;15.32;;;;;;;;;;6269492;22;20617;-82
2023/03/18 04:36:07;;;;;;;27.58;15.50;;;;;;;;;;6270671;22;20026;-82
2023/03/18 04:38:34;;;;;;;32.08;15.80;;;;;;;;;;6242750;22;20028;-83
2023/03/18 04:41:00;;;;;;;29.52;15.68;;;;;;;;;;6269139;22;20647;-82
2023/03/18 04:43:27;;;;;;;28.58;16.00;;;;;;;;;;6269888;22;20039;-82
2023/03/18 04:45:53;;;;;;;31.23;16.55;;;;;;;;;;6269338;22;20032;-83
2023/03/18 04:48:20;;;;;;;29.17;15.98;;;;;;;;;;6269880;22;20055;-83
2023/03/18 04:50:46;;;;;;;39.05;15.43;;;;;;;;;;6242237;22;20024;-82
2023/03/18 04:53:13;;;;;;;26.83;14.93;;;;;;;;;;6269321;22;20052;-82
2023/03/18 04:55:39;;;;;;;33.78;15.90;;;;;;;;;;6269866;22;21064;-82
2023/03/18 04:58:06;;;;;;;30.00;15.27;;;;;;;;;;6270006;22;20024;-83
2023/03/18 05:00:32;;;;;;;27.67;14.73;;;;;;;;;;6243652;22;20070;-83
2023/03/18 05:03:00;;;;;;;35.22;14.85;;;;;;;;;;6269076;22;20024;-82
2023/03/18 05:05:26;;;;;;;33.75;15.07;;;;;;;;;;6243525;22;20071;-82
2023/03/18 05:07:53;;;;;;;30.45;15.32;;;;;;;;;;6270168;22;20410;-82
2023/03/18 05:10:19;;;;;;;29.98;15.90;;;;;;;;;;6269220;22;20020;-82
2023/03/18 05:12:45;;;;;;;31.52;15.43;;;;;;;;;;6267326;22;20028;-82
2023/03/18 05:15:13;;;;;;;27.40;14.27;;;;;;;;;;6268392;22;20105;-83
2023/03/18 05:17:39;;;;;;;30.08;15.05;;;;;;;;;;6244150;22;20737;-82
2023/03/18 05:20:06;;;;;;;27.27;13.65;;;;;;;;;;6243187;22;20086;-82
2023/03/18 05:22:33;;;;;;;31.15;15.30;;;;;;;;;;6242641;22;20024;-82
2023/03/18 05:24:59;;;;;;;32.53;14.98;;;;;;;;;;6267816;22;20024;-82
2023/03/18 05:27:27;;;;;;;29.90;14.57;;;;;;;;;;6268363;22;20560;-81
2023/03/18 05:29:53;;;;;;;34.28;15.30;;;;;;;;;;6243071;22;20028;-82
2023/03/18 05:32:19;;;;;;;28.45;14.82;;;;;;;;;;6270294;22;20052;-82
2023/03/18 05:34:46;;;;;;;28.35;14.52;;;;;;;;;;6268968;22;20024;-82
2023/03/18 05:37:13;;;;;;;32.08;13.90;;;;;;;;;;6270769;22;20108;-83
2023/03/18 05:39:40;;;;;;;31.55;14.50;;;;;;;;;;6269330;22;20062;-81
2023/03/18 05:42:10;;;;;;;31.27;14.40;;;;;;;;;;6269836;22;20027;-82
2023/03/18 05:44:37;;;;;;;30.77;14.63;;;;;;;;;;6249751;22;20468;-81
2023/03/18 05:47:04;;;;;;;30.92;14.77;;;;;;;;;;6268390;22;20024;-81
2023/03/18 05:49:30;;;;;;;31.35;15.13;;;;;;;;;;6270085;22;20020;-82
2023/03/18 05:51:57;;;;;;;32.67;14.85;;;;;;;;;;6268294;22;20027;-82
2023/03/18 05:54:23;;;;;;;40.00;15.50;;;;;;;;;;6269888;22;20075;-82
2023/03/18 05:56:51;;;;;;;33.92;15.02;;;;;;;;;;6267977;22;20377;-81
2023/03/18 05:59:18;;;;;;;36.10;16.52;;;;;;;;;;6269271;22;20031;-82
2023/03/18 06:01:45;;;;;;;32.20;15.50;;;;;;;;;;6268344;22;20030;-82
2023/03/18 06:04:11;;;;;;;30.35;15.00;;;;;;;;;;6268297;22;20024;-82
2023/03/18 06:06:39;;;;;;;31.38;14.73;;;;;;;;;;6269379;22;20829;-81
2023/03/18 06:09:06;;;;;;;33.55;15.50;;;;;;;;;;6269523;22;20086;-81
2023/03/18 06:11:32;;;;;;;37.38;15.35;;;;;;;;;;6270316;22;20036;-82
2023/03/18 06:13:59;;;;;;;31.25;15.23;;;;;;;;;;6268649;22;20028;-81
2023/03/18 06:16:27;;;;;;;34.80;15.65;;;;;;;;;;6269162;22;20024;-82
2023/03/18 06:18:54;;;;;;;35.90;15.07;;;;;;;;;;6268361;22;20992;-81
2023/03/18 06:21:20;;;;;;;32.00;14.90;;;;;;;;;;6267047;22;20024;-81
2023/03/18 06:23:46;;;;;;;31.55;14.98;;;;;;;;;;6269687;22;20028;-81
2023/03/18 06:26:13;;;;;;;30.77;14.98;;;;;;;;;;6270543;22;20570;-81
2023/03/18 06:28:39;;;;;;;33.15;14.82;;;;;;;;;;6270399;22;20016;-81
2023/03/18 06:31:06;;;;;;;33.90;15.45;;;;;;;;;;6269716;22;20020;-81
2023/03/18 06:33:32;;;;;;;32.05;15.50;;;;;;;;;;6269103;22;20024;-82
2023/03/18 06:36:01;;;;;;;32.45;16.00;;;;;;;;;;6268738;22;20024;-81
2023/03/18 06:38:27;;;;;;;30.02;15.02;;;;;;;;;;6269207;22;20024;-82
2023/03/18 06:40:55;;;;;;;32.42;15.13;;;;;;;;;;6267104;22;20946;-82
2023/03/18 06:43:22;;;;;;;37.83;15.32;;;;;;;;;;6268590;22;20920;-81
2023/03/18 06:45:49;;;;;;;31.95;14.10;;;;;;;;;;6267477;22;20034;-81
2023/03/18 06:48:16;;;;;;;31.05;14.27;;;;;;;;;;6268413;22;20030;-81
2023/03/18 06:50:43;;;;;;;30.45;14.45;;;;;;;;;;6267607;22;20028;-79
2023/03/18 06:53:09;;;;;;;31.08;14.88;;;;;;;;;;6269641;22;20437;-80
2023/03/18 06:55:36;;;;;;;36.28;15.05;;;;;;;;;;6269314;22;20035;-81
2023/03/18 06:58:04;;;;;;;29.65;15.27;;;;;;;;;;6267446;22;20039;-79
2023/03/18 07:00:31;;;;;;;31.75;16.10;;;;;;;;;;6269436;22;20063;-80
2023/03/18 07:02:57;;;;;;;34.08;15.90;;;;;;;;;;6267017;22;21022;-80
2023/03/18 07:05:26;;;;;;;33.88;14.95;;;;;;;;;;6267796;22;20055;-80
2023/03/18 07:07:53;;;;;;;34.80;16.58;;;;;;;;;;6268694;22;20092;-80
2023/03/18 07:10:21;;;;;;;34.95;17.13;;;;;;;;;;6267875;22;20116;-81
2023/03/18 07:12:49;;;;;;;35.70;17.15;;;;;;;;;;6268338;22;20497;-81
2023/03/18 07:15:15;;;;;;;33.55;16.25;;;;;;;;;;6268038;22;20025;-81
2023/03/18 07:17:42;;;;;;;38.10;17.70;;;;;;;;;;6268139;22;20063;-82
2023/03/18 07:20:09;;;;;;;34.65;16.75;;;;;;;;;;6268929;22;20024;-81
2023/03/18 07:22:36;;;;;;;32.90;17.88;;;;;;;;;;6268855;22;20048;-81
2023/03/18 07:25:03;;;;;;;30.92;16.00;;;;;;;;;;6267121;22;20410;-81
2023/03/18 07:27:29;;;;;;;30.70;16.58;;;;;;;;;;6268429;22;20035;-81
2023/03/18 07:29:56;;;;;;;31.85;16.27;;;;;;;;;;6266910;22;20066;-81
2023/03/18 07:32:22;;;;;;;32.30;16.70;;;;;;;;;;6266486;22;20772;-81
2023/03/18 07:34:49;;;;;;;37.78;18.00;;;;;;;;;;6268254;22;20024;-81
2023/03/18 07:37:15;;;;;;;32.58;16.52;;;;;;;;;;6267394;22;20066;-81
2023/03/18 07:39:42;;;;;;;33.72;17.05;;;;;;;;;;6268671;22;20020;-81
2023/03/18 07:42:09;;;;;;;35.47;17.20;;;;;;;;;;6269768;22;20020;-81
2023/03/18 07:44:36;;;;;;;34.03;16.65;;;;;;;;;;6268205;22;20028;-81
2023/03/18 07:47:03;;;;;;;39.72;18.75;;;;;;;;;;6269290;22;20531;-81
2023/03/18 07:49:29;;;;;;;33.28;16.83;;;;;;;;;;6269160;22;20152;-83
2023/03/18 07:51:55;;;;;;;30.92;16.45;;;;;;;;;;6269714;22;20552;-82
2023/03/18 07:54:23;;;;;;;31.73;16.77;;;;;;;;;;6267828;22;20020;-83
2023/03/18 07:56:50;;;;;;;30.15;15.68;;;;;;;;;;6240884;22;20082;-82
2023/03/18 07:59:17;;;;;;;31.10;15.85;;;;;;;;;;6241153;22;20074;-82
2023/03/18 08:01:44;;;;;;;27.73;15.02;;;;;;;;;;6267763;22;20099;-82
2023/03/18 08:04:11;;;;;;;25.58;14.77;;;;;;;;;;6265923;22;20104;-81
2023/03/18 08:06:38;;;;;;;30.63;15.38;;;;;;;;;;6266902;22;20028;-82
2023/03/18 08:09:04;;;;;;;31.05;15.80;;;;;;;;;;6269760;22;20047;-81
2023/03/18 08:11:32;;;;;;;31.10;15.18;;;;;;;;;;6269879;22;20495;-81
2023/03/18 08:13:58;;;;;;;25.65;14.70;;;;;;;;;;6240673;22;20066;-81
2023/03/18 08:16:25;;;;;;;27.73;14.70;;;;;;;;;;6269963;22;20071;-81
2023/03/18 08:18:52;;;;;;;31.05;16.00;;;;;;;;;;6267625;22;20024;-82
2023/03/18 08:21:18;;;;;;;24.52;14.85;;;;;;;;;;6269713;22;21064;-82
2023/03/18 08:23:46;;;;;;;24.38;14.73;;;;;;;;;;6268189;22;20031;-81
2023/03/18 08:26:12;;;;;;;27.35;15.07;;;;;;;;;;6242264;22;20036;-82
2023/03/18 08:28:39;;;;;;;26.08;14.88;;;;;;;;;;6270315;22;20050;-82
2023/03/18 08:31:05;;;;;;;31.25;17.17;;;;;;;;;;6241476;22;20103;-81
2023/03/18 08:33:32;;;;;;;25.33;15.05;;;;;;;;;;6268466;22;20020;-82
2023/03/18 08:35:59;;;;;;;27.17;14.95;;;;;;;;;;6268319;22;20028;-84
2023/03/18 08:38:25;;;;;;;23.92;14.75;;;;;;;;;;6268909;22;20040;-82
2023/03/18 08:40:51;;;;;;;23.30;13.88;;;;;;;;;;6268546;22;20054;-84
2023/03/18 08:43:20;;;;;;;26.67;14.05;;;;;;;;;;6269665;22;20032;-83
2023/03/18 08:45:53;;;;;;;24.65;14.20;;;;;;;;;;6265409;22;20031;-82
2023/03/18 08:48:21;;;;;;;20.70;13.15;;;;;;;;;;6269930;22;20020;-81
2023/03/18 08:50:47;;;;;;;21.30;13.10;;;;;;;;;;6269830;22;20028;-84
2023/03/18 08:53:14;;;;;;;25.08;13.68;;;;;;;;;;6267281;22;20812;-82
2023/03/18 08:55:40;;;;;;;23.17;13.45;;;;;;;;;;6270274;22;20024;-81
2023/03/18 08:58:07;;;;;;;22.05;12.90;;;;;;;;;;6269179;22;20504;-82
2023/03/18 09:00:35;;;;;;;19.85;11.63;;;;;;;;;;6271119;22;20087;-82
2023/03/18 09:03:02;;;;;;;18.65;11.43;;;;;;;;;;6265953;22;20047;-81
2023/03/18 09:05:31;;;;;;;19.60;12.38;;;;;;;;;;6267138;22;20055;-82
2023/03/18 09:07:59;;;;;;;20.92;11.50;;;;;;;;;;6269019;22;20518;-83
2023/03/18 09:10:26;;;;;;;22.15;11.55;;;;;;;;;;6269015;22;20032;-81
2023/03/18 09:12:52;;;;;;;20.02;11.45;;;;;;;;;;6268709;22;20167;-83
2023/03/18 09:15:21;;;;;;;21.77;12.05;;;;;;;;;;6269132;22;20503;-82
2023/03/18 09:17:48;;;;;;;20.55;12.07;;;;;;;;;;6267343;22;20024;-81
2023/03/18 09:20:34;;;;;;;20.50;12.52;;;;;;;;;;6266980;22;20430;-81
2023/03/18 09:23:01;;;;;;;24.20;13.02;;;;;;;;;;6267885;22;20024;-81
2023/03/18 09:25:28;;;;;;;18.00;11.10;;;;;;;;;;6267232;22;20875;-82
2023/03/18 09:27:54;;;;;;;20.77;11.45;;;;;;;;;;6268318;22;20020;-80
2023/03/18 09:30:21;;;;;;;19.08;11.65;;;;;;;;;;6267877;22;20516;-84
2023/03/18 09:32:47;;;;;;;23.63;12.05;;;;;;;;;;6267140;22;20030;-85
2023/03/18 09:35:15;;;;;;;19.23;10.60;;;;;;;;;;6268092;22;20028;-82
2023/03/18 09:37:42;;;;;;;18.77;10.98;;;;;;;;;;6266990;22;20028;-83
2023/03/18 09:40:28;;;;;;;18.23;10.40;;;;;;;;;;6268588;22;20075;-82
2023/03/18 09:42:55;;;;;;;15.35;9.40;;;;;;;;;;6267223;22;20063;-82
2023/03/18 09:45:43;;;;;;;16.95;9.27;;;;;;;;;;6269284;22;20024;-82
2023/03/18 09:48:28;;;;;;;16.33;9.55;;;;;;;;;;6269019;22;20028;-82
2023/03/18 09:51:10;;;;;;;17.25;10.05;;;;;;;;;;6268415;22;20028;-83
2023/03/18 09:53:36;;;;;;;16.05;9.52;;;;;;;;;;6268262;22;20032;-81
2023/03/18 09:56:03;;;;;;;16.63;9.52;;;;;;;;;;6269671;22;20051;-83
2023/03/18 09:58:41;;;;;;;16.80;9.88;;;;;;;;;;6241587;22;20397;-81
2023/03/18 10:01:09;;;;;;;15.48;9.02;;;;;;;;;;6241243;22;20028;-81
2023/03/18 10:03:37;;;;;;;20.95;9.18;;;;;;;;;;6268500;22;20489;-83
2023/03/18 10:06:05;;;;;;;16.48;9.43;;;;;;;;;;6268758;22;20024;-85
2023/03/18 10:08:51;;;;;;;14.77;8.95;;;;;;;;;;6244076;22;20051;-81
2023/03/18 10:11:28;;;;;;;16.80;9.32;;;;;;;;;;6266634;22;20032;-82
2023/03/18 10:14:15;;;;;;;16.25;9.00;;;;;;;;;;6268069;22;20895;-83
2023/03/18 10:16:57;;;;;;;15.90;9.95;;;;;;;;;;6204042;22;20028;-84
2023/03/18 10:19:23;;;;;;;17.65;8.85;;;;;;;;;;6242111;22;20032;-84
2023/03/18 10:22:02;;;;;;;16.27;7.40;;;;;;;;;;6239994;22;20103;-86
2023/03/18 10:24:37;;;;;;;14.15;7.75;;;;;;;;;;6240437;22;20061;-83
2023/03/18 10:27:18;;;;;;;16.10;7.53;;;;;;;;;;6268222;22;20025;-86
2023/03/18 10:29:48;;;;;;;15.30;7.93;;;;;;;;;;6267010;22;20024;-83
2023/03/18 10:32:14;;;;;;;11.63;7.00;;;;;;;;;;6239310;22;20024;-84
2023/03/18 10:35:04;;;;;;;11.73;6.70;;;;;;;;;;6265876;22;20012;-86
2023/03/18 10:37:37;;;;;;;12.85;7.60;;;;;;;;;;6241185;22;20028;-82
2023/03/18 10:40:11;;;;;;;13.38;7.30;;;;;;;;;;6268789;22;20114;-88
2023/03/18 10:42:37;;;;;;;11.70;6.50;;;;;;;;;;6241592;22;20066;-87
2023/03/18 10:45:16;;;;;;;10.10;6.55;;;;;;;;;;6253323;22;20457;-84
2023/03/18 10:47:45;;;;;;;14.20;7.07;;;;;;;;;;6269148;22;20480;-83
2023/03/18 10:50:16;;;;;;;12.23;7.13;;;;;;;;;;6268229;22;20027;-82
2023/03/18 10:52:50;;;;;;;11.73;6.75;;;;;;;;;;6267941;22;20259;-85
2023/03/18 10:55:20;;;;;;;14.18;6.57;;;;;;;;;;6268595;22;20024;-84
2023/03/18 10:57:46;;;;;;;12.68;6.63;;;;;;;;;;6268318;22;20031;-84
2023/03/18 11:00:25;;;;;;;12.10;6.40;;;;;;;;;;6266351;22;20031;-85
2023/03/18 11:02:51;;;;;;;11.00;5.95;;;;;;;;;;6268117;22;20713;-84
2023/03/18 11:05:18;;;;;;;12.07;5.93;;;;;;;;;;6268724;22;20119;-89
2023/03/18 11:08:02;;;;;;;11.52;6.00;;;;;;;;;;6266962;22;20128;-86
2023/03/18 11:10:33;;;;;;;10.10;5.90;;;;;;;;;;6266839;22;20020;-88
2023/03/18 11:13:01;;;;;;;11.10;5.05;;;;;;;;;;6265582;22;20143;-85
2023/03/18 11:15:39;;;;;;;10.98;5.25;;;;;;;;;;6267346;22;20040;-84
2023/03/18 11:18:10;;;;;;;9.55;5.75;;;;;;;;;;6267349;22;20079;-85
2023/03/18 11:20:46;;;;;;;9.98;5.90;;;;;;;;;;6268393;22;20464;-86
2023/03/18 11:23:17;;;;;;;11.73;5.93;;;;;;;;;;6266801;22;20023;-84
2023/03/18 11:25:47;;;;;;;9.70;5.60;;;;;;;;;;6267278;22;20039;-85
2023/03/18 11:28:13;;;;;;;;;;;;;;;;;;6269499;22;20038;-85
2023/03/18 11:30:55;;;;;;;10.00;5.05;;;;;;;;;;6268471;22;45239;-84
2023/03/18 11:33:22;;;;;;;12.15;5.28;;;;;;;;;;6268660;22;20028;-84
2023/03/18 11:35:51;;;;;;;9.65;4.93;;;;;;;;;;6267200;22;20055;-83
2023/03/18 11:38:27;;;;;;;11.93;5.15;;;;;;;;;;6269187;22;20030;-84
2023/03/18 11:41:12;;;;;;;11.25;5.88;;;;;;;;;;6270008;22;20062;-83
2023/03/18 11:43:52;;;;;;;11.98;5.70;;;;;;;;;;6267236;22;20107;-83
2023/03/18 11:46:21;;;;;;;12.55;5.85;;;;;;;;;;6267556;22;20043;-84
2023/03/18 11:48:47;;;;;;;10.52;5.10;;;;;;;;;;6269267;22;20063;-83
2023/03/18 11:51:33;;;;;;;10.00;5.13;;;;;;;;;;6269612;22;20027;-83
2023/03/18 11:54:00;;;;;;;11.93;5.50;;;;;;;;;;6265379;22;20105;-84
2023/03/18 11:56:29;;;;;;;10.70;5.47;;;;;;;;;;6240204;22;20032;-84
2023/03/18 11:59:15;;;;;;;9.02;4.75;;;;;;;;;;6267202;22;20867;-83
2023/03/18 12:01:54;;;;;;;9.90;4.50;;;;;;;;;;6268396;22;20922;-85
2023/03/18 12:04:39;;;;;;;9.43;4.50;;;;;;;;;;6240881;22;20023;-85
2023/03/18 12:07:15;;;;;;;7.68;4.55;;;;;;;;;;6269403;22;20044;-84
2023/03/18 12:09:52;;;;;;;9.95;5.00;;;;;;;;;;6241235;22;20028;-84
2023/03/18 12:12:30;;;;;;;9.55;4.65;;;;;;;;;;6241951;22;20330;-85
2023/03/18 12:15:03;;;;;;;11.73;4.47;;;;;;;;;;6267529;22;20538;-85
2023/03/18 12:17:30;;;;;;;9.80;4.30;;;;;;;;;;6272792;22;20103;-84
2023/03/18 12:20:08;;;;;;;10.02;4.03;;;;;;;;;;6269399;22;20542;-84
2023/03/18 12:22:41;;;;;;;10.38;4.90;;;;;;;;;;6243281;22;20028;-84
2023/03/18 12:25:16;;;;;;;7.78;4.47;;;;;;;;;;6270933;22;20502;-84
2023/03/18 12:27:57;;;;;;;10.05;3.97;;;;;;;;;;6242969;22;20167;-84
2023/03/18 12:30:29;;;;;;;9.77;3.67;;;;;;;;;;6271748;22;20714;-83
2023/03/18 12:33:09;;;;;;;7.95;3.55;;;;;;;;;;6269310;22;20559;-83
2023/03/18 12:35:41;;;;;;;13.15;3.92;;;;;;;;;;6270971;22;20074;-84
2023/03/18 12:38:26;;;;;;;8.15;3.83;;;;;;;;;;6269484;22;20060;-84
2023/03/18 12:41:04;;;;;;;7.18;3.80;;;;;;;;;;6270705;22;20028;-84
2023/03/18 12:43:50;;;;;;;11.30;3.90;;;;;;;;;;6269854;22;20472;-84
2023/03/18 12:46:16;;;;;;;8.65;4.20;;;;;;;;;;6268533;22;20056;-84
2023/03/18 12:49:03;;;;;;;10.38;3.90;;;;;;;;;;6243929;22;20082;-84
2023/03/18 12:51:34;;;;;;;8.45;3.92;;;;;;;;;;6248894;22;20024;-84
2023/03/18 12:54:15;;;;;;;8.23;4.35;;;;;;;;;;6269310;22;20499;-83
2023/03/18 12:56:42;;;;;;;;;;;;;;;;;;6244270;22;20028;-84
2023/03/18 12:59:17;;;;;;;11.10;4.45;;;;;;;;;;6243486;22;45571;-84
2023/03/18 13:01:48;;;;;;;11.68;5.07;;;;;;;;;;6269405;22;20684;-83
2023/03/18 13:04:18;;;;;;;14.10;4.88;;;;;;;;;;6269457;22;20303;-84
2023/03/18 13:06:50;;;;;;;13.45;4.90;;;;;;;;;;6242628;22;20024;-83
2023/03/18 13:09:35;;;;;;;10.18;4.93;;;;;;;;;;6268893;22;20020;-84
2023/03/18 13:12:14;;;;;;;7.82;4.28;;;;;;;;;;6268896;22;20038;-84
2023/03/18 13:14:57;;;;;;;8.50;4.60;;;;;;;;;;6268619;22;20099;-84
2023/03/18 13:17:28;;;;;;;9.82;4.15;;;;;;;;;;6241518;22;20579;-84
2023/03/18 13:20:03;;;;;;;9.63;4.55;;;;;;;;;;6267578;22;20024;-84
2023/03/18 13:22:31;;;;;;;9.48;4.80;;;;;;;;;;6269270;22;20026;-84
2023/03/18 13:25:16;;;;;;;10.68;5.55;;;;;;;;;;6269358;22;20020;-83
2023/03/18 13:27:45;;;;;;;11.52;5.35;;;;;;;;;;6270812;22;20477;-83
2023/03/18 13:30:17;;;;;;;12.45;4.80;;;;;;;;;;6270585;22;20059;-83
2023/03/18 13:32:46;;;;;;;12.73;5.10;;;;;;;;;;6268913;22;20023;-83
2023/03/18 13:35:29;;;;;;;12.05;5.72;;;;;;;;;;6244539;22;20024;-83
2023/03/18 13:38:14;;;;;;;10.15;4.30;;;;;;;;;;6271913;22;20028;-84
2023/03/18 13:40:51;;;;;;;10.02;4.20;;;;;;;;;;6272666;22;20489;-84
2023/03/18 13:43:19;;;;;;;13.93;4.53;;;;;;;;;;6242703;22;20469;-83
2023/03/18 13:45:46;;;;;;;10.55;4.53;;;;;;;;;;6271484;22;20078;-83
2023/03/18 13:48:26;;;;;;;7.80;3.72;;;;;;;;;;6271939;22;20036;-83
2023/03/18 13:50:53;;;;;;;8.10;3.90;;;;;;;;;;6269083;22;20887;-83
2023/03/18 13:53:23;;;;;;;7.50;3.65;;;;;;;;;;6242849;22;20027;-84
2023/03/18 13:55:59;;;;;;;7.53;3.13;;;;;;;;;;6271146;22;20412;-83
2023/03/18 13:58:33;;;;;;;10.68;3.42;;;;;;;;;;6243864;22;20031;-83
2023/03/18 14:00:59;;;;;;;7.75;3.38;;;;;;;;;;6269304;22;20039;-83
2023/03/18 14:03:28;;;;;;;10.00;3.30;;;;;;;;;;6266738;22;20871;-83
2023/03/18 14:06:07;;;;;;;8.45;3.00;;;;;;;;;;6266897;22;20020;-84
2023/03/18 14:08:37;;;;;;;8.70;3.60;;;;;;;;;;6271191;22;20082;-84
2023/03/18 14:11:15;;;;;;;8.40;3.10;;;;;;;;;;6267662;22;20163;-83
2023/03/18 14:13:43;;;;;;;6.65;2.67;;;;;;;;;;6266181;22;20531;-84
2023/03/18 14:16:11;;;;;;;6.70;2.42;;;;;;;;;;6241950;22;20024;-84
2023/03/18 14:18:38;;;;;;;6.55;1.88;;;;;;;;;;6246952;22;20553;-84
2023/03/18 14:21:07;;;;;;;6.63;1.70;;;;;;;;;;6270790;22;20056;-84
2023/03/18 14:23:38;;;;;;;6.97;1.67;;;;;;;;;;6243911;22;20020;-84
2023/03/18 14:26:07;;;;;;;6.40;1.88;;;;;;;;;;6242320;22;20343;-84
2023/03/18 14:28:43;;;;;;;6.40;1.92;;;;;;;;;;6242919;22;20032;-85
2023/03/18 14:31:27;;;;;;;7.72;2.10;;;;;;;;;;6271939;22;20747;-84
2023/03/18 14:33:59;;;;;;;4.90;2.17;;;;;;;;;;6267542;22;20035;-85
2023/03/18 14:36:27;;;;;;;7.70;2.03;;;;;;;;;;6275974;22;20031;-84
2023/03/18 14:39:02;;;;;;;5.43;2.20;;;;;;;;;;6284249;22;20847;-86
2023/03/18 14:41:29;;;;;;;6.30;2.40;;;;;;;;;;6282235;22;20024;-85